sensor_id;sensor_type;location;lat;lon;timestamp;P1;durP1;ratioP1;P2;durP2;ratioP2
7179;SDS011;3631;42.152;24.756;2022-12-05T00:01:16;27.13;;;18.57;;
7179;SDS011;3631;42.152;24.756;2022-12-05T00:03:46;23.80;;;15.83;;
7179;SDS011;3631;42.152;24.756;2022-12-05T00:06:14;21.83;;;15.23;;
7179;SDS011;3631;42.152;24.756;2022-12-05T00:08:42;28.30;;;19.03;;
7179;SDS011;3631;42.152;24.756;2022-12-05T00:11:10;33.60;;;23.57;;
7179;SDS011;3631;42.152;24.756;2022-12-05T00:13:38;51.33;;;30.70;;
7179;SDS011;3631;42.152;24.756;2022-12-05T00:16:07;47.57;;;28.33;;
7179;SDS011;3631;42.152;24.756;2022-12-05T00:18:34;34.87;;;21.73;;
7179;SDS011;3631;42.152;24.756;2022-12-05T00:21:03;33.60;;;20.20;;
7179;SDS011;3631;42.152;24.756;2022-12-05T00:23:30;33.53;;;19.53;;
7179;SDS011;3631;42.152;24.756;2022-12-05T00:26:00;44.27;;;24.57;;
7179;SDS011;3631;42.152;24.756;2022-12-05T00:28:27;26.93;;;19.17;;
7179;SDS011;3631;42.152;24.756;2022-12-05T00:30:55;33.57;;;19.83;;
7179;SDS011;3631;42.152;24.756;2022-12-05T00:33:22;36.53;;;21.00;;
7179;SDS011;3631;42.152;24.756;2022-12-05T00:35:49;34.50;;;19.93;;
7179;SDS011;3631;42.152;24.756;2022-12-05T00:38:18;21.30;;;14.97;;
7179;SDS011;3631;42.152;24.756;2022-12-05T00:40:44;22.27;;;15.27;;
7179;SDS011;3631;42.152;24.756;2022-12-05T00:43:11;21.80;;;14.43;;
7179;SDS011;3631;42.152;24.756;2022-12-05T00:45:38;26.40;;;16.50;;
7179;SDS011;3631;42.152;24.756;2022-12-05T00:48:05;26.03;;;16.17;;
7179;SDS011;3631;42.152;24.756;2022-12-05T00:50:32;27.40;;;18.00;;
7179;SDS011;3631;42.152;24.756;2022-12-05T00:52:59;26.30;;;16.33;;
7179;SDS011;3631;42.152;24.756;2022-12-05T00:55:27;17.83;;;13.70;;
7179;SDS011;3631;42.152;24.756;2022-12-05T00:57:54;19.13;;;14.80;;
7179;SDS011;3631;42.152;24.756;2022-12-05T01:00:21;18.80;;;14.07;;
7179;SDS011;3631;42.152;24.756;2022-12-05T01:02:48;19.43;;;14.03;;
7179;SDS011;3631;42.152;24.756;2022-12-05T01:05:15;18.27;;;12.53;;
7179;SDS011;3631;42.152;24.756;2022-12-05T01:07:42;17.67;;;12.83;;
7179;SDS011;3631;42.152;24.756;2022-12-05T01:10:09;25.27;;;16.17;;
7179;SDS011;3631;42.152;24.756;2022-12-05T01:12:37;18.33;;;12.80;;
7179;SDS011;3631;42.152;24.756;2022-12-05T01:15:05;16.07;;;12.43;;
7179;SDS011;3631;42.152;24.756;2022-12-05T01:17:32;16.13;;;11.33;;
7179;SDS011;3631;42.152;24.756;2022-12-05T01:20:00;15.67;;;12.03;;
7179;SDS011;3631;42.152;24.756;2022-12-05T01:22:27;14.37;;;11.80;;
7179;SDS011;3631;42.152;24.756;2022-12-05T01:24:54;17.70;;;12.27;;
7179;SDS011;3631;42.152;24.756;2022-12-05T01:27:22;19.07;;;12.87;;
7179;SDS011;3631;42.152;24.756;2022-12-05T01:29:50;19.17;;;13.97;;
7179;SDS011;3631;42.152;24.756;2022-12-05T01:32:17;19.43;;;13.77;;
7179;SDS011;3631;42.152;24.756;2022-12-05T01:34:44;13.77;;;12.07;;
7179;SDS011;3631;42.152;24.756;2022-12-05T01:37:11;17.77;;;12.50;;
7179;SDS011;3631;42.152;24.756;2022-12-05T01:39:38;17.13;;;12.37;;
7179;SDS011;3631;42.152;24.756;2022-12-05T01:42:05;15.23;;;11.63;;
7179;SDS011;3631;42.152;24.756;2022-12-05T01:47:33;19.23;;;11.60;;
7179;SDS011;3631;42.152;24.756;2022-12-05T01:50:01;15.83;;;11.57;;
7179;SDS011;3631;42.152;24.756;2022-12-05T01:52:29;15.53;;;11.97;;
7179;SDS011;3631;42.152;24.756;2022-12-05T01:55:00;16.40;;;12.57;;
7179;SDS011;3631;42.152;24.756;2022-12-05T01:57:31;18.57;;;12.47;;
7179;SDS011;3631;42.152;24.756;2022-12-05T02:00:01;16.70;;;12.47;;
7179;SDS011;3631;42.152;24.756;2022-12-05T02:02:32;19.83;;;13.80;;
7179;SDS011;3631;42.152;24.756;2022-12-05T02:05:00;16.93;;;13.30;;
7179;SDS011;3631;42.152;24.756;2022-12-05T02:07:31;17.10;;;13.23;;
7179;SDS011;3631;42.152;24.756;2022-12-05T02:09:59;18.83;;;13.40;;
7179;SDS011;3631;42.152;24.756;2022-12-05T02:12:26;20.23;;;15.43;;
7179;SDS011;3631;42.152;24.756;2022-12-05T02:14:59;18.30;;;13.10;;
7179;SDS011;3631;42.152;24.756;2022-12-05T02:17:39;17.53;;;12.93;;
7179;SDS011;3631;42.152;24.756;2022-12-05T02:20:27;16.27;;;12.40;;
7179;SDS011;3631;42.152;24.756;2022-12-05T02:26:22;23.50;;;12.33;;
7179;SDS011;3631;42.152;24.756;2022-12-05T02:29:14;18.00;;;13.60;;
7179;SDS011;3631;42.152;24.756;2022-12-05T02:32:02;23.63;;;13.33;;
7179;SDS011;3631;42.152;24.756;2022-12-05T02:34:33;16.97;;;13.33;;
7179;SDS011;3631;42.152;24.756;2022-12-05T02:37:11;18.53;;;13.20;;
7179;SDS011;3631;42.152;24.756;2022-12-05T02:39:44;20.50;;;14.03;;
7179;SDS011;3631;42.152;24.756;2022-12-05T02:42:19;18.80;;;13.50;;
7179;SDS011;3631;42.152;24.756;2022-12-05T02:44:53;18.70;;;13.17;;
7179;SDS011;3631;42.152;24.756;2022-12-05T02:47:25;20.13;;;14.17;;
7179;SDS011;3631;42.152;24.756;2022-12-05T02:49:56;21.10;;;14.83;;
7179;SDS011;3631;42.152;24.756;2022-12-05T02:52:24;22.70;;;15.13;;
7179;SDS011;3631;42.152;24.756;2022-12-05T02:54:53;20.60;;;14.70;;
7179;SDS011;3631;42.152;24.756;2022-12-05T02:57:21;21.73;;;14.37;;
7179;SDS011;3631;42.152;24.756;2022-12-05T02:59:48;19.13;;;14.57;;
7179;SDS011;3631;42.152;24.756;2022-12-05T03:02:22;21.67;;;14.90;;
7179;SDS011;3631;42.152;24.756;2022-12-05T03:04:53;19.80;;;14.00;;
7179;SDS011;3631;42.152;24.756;2022-12-05T03:07:23;18.30;;;13.93;;
7179;SDS011;3631;42.152;24.756;2022-12-05T03:09:53;18.87;;;13.17;;
7179;SDS011;3631;42.152;24.756;2022-12-05T03:12:24;18.60;;;13.53;;
7179;SDS011;3631;42.152;24.756;2022-12-05T03:14:55;16.10;;;12.60;;
7179;SDS011;3631;42.152;24.756;2022-12-05T03:17:28;21.23;;;14.50;;
7179;SDS011;3631;42.152;24.756;2022-12-05T03:20:02;22.73;;;13.43;;
7179;SDS011;3631;42.152;24.756;2022-12-05T03:22:35;18.27;;;13.90;;
7179;SDS011;3631;42.152;24.756;2022-12-05T03:25:06;20.00;;;13.97;;
7179;SDS011;3631;42.152;24.756;2022-12-05T03:27:36;19.43;;;14.77;;
7179;SDS011;3631;42.152;24.756;2022-12-05T03:30:13;19.23;;;13.67;;
7179;SDS011;3631;42.152;24.756;2022-12-05T03:32:44;17.80;;;12.93;;
7179;SDS011;3631;42.152;24.756;2022-12-05T03:35:17;15.87;;;11.60;;
7179;SDS011;3631;42.152;24.756;2022-12-05T03:37:50;16.07;;;11.97;;
7179;SDS011;3631;42.152;24.756;2022-12-05T03:40:25;16.07;;;11.63;;
7179;SDS011;3631;42.152;24.756;2022-12-05T03:43:00;15.33;;;11.17;;
7179;SDS011;3631;42.152;24.756;2022-12-05T03:45:35;18.20;;;11.07;;
7179;SDS011;3631;42.152;24.756;2022-12-05T03:48:12;12.70;;;10.77;;
7179;SDS011;3631;42.152;24.756;2022-12-05T03:50:44;14.20;;;11.27;;
7179;SDS011;3631;42.152;24.756;2022-12-05T03:53:15;14.50;;;11.27;;
7179;SDS011;3631;42.152;24.756;2022-12-05T03:55:44;17.10;;;11.10;;
7179;SDS011;3631;42.152;24.756;2022-12-05T03:58:19;16.33;;;11.30;;
7179;SDS011;3631;42.152;24.756;2022-12-05T04:00:51;17.00;;;12.80;;
7179;SDS011;3631;42.152;24.756;2022-12-05T04:03:25;14.73;;;11.17;;
7179;SDS011;3631;42.152;24.756;2022-12-05T04:06:03;13.80;;;11.20;;
7179;SDS011;3631;42.152;24.756;2022-12-05T04:08:35;13.97;;;11.43;;
7179;SDS011;3631;42.152;24.756;2022-12-05T04:11:08;16.50;;;11.93;;
7179;SDS011;3631;42.152;24.756;2022-12-05T04:13:40;13.37;;;11.30;;
7179;SDS011;3631;42.152;24.756;2022-12-05T04:16:12;14.43;;;11.10;;
7179;SDS011;3631;42.152;24.756;2022-12-05T04:19:04;15.07;;;11.63;;
7179;SDS011;3631;42.152;24.756;2022-12-05T04:21:36;14.53;;;12.33;;
7179;SDS011;3631;42.152;24.756;2022-12-05T04:24:09;18.30;;;11.83;;
7179;SDS011;3631;42.152;24.756;2022-12-05T04:26:59;17.93;;;10.43;;
7179;SDS011;3631;42.152;24.756;2022-12-05T04:29:36;17.30;;;10.97;;
7179;SDS011;3631;42.152;24.756;2022-12-05T04:32:10;15.83;;;11.20;;
7179;SDS011;3631;42.152;24.756;2022-12-05T04:34:41;12.97;;;10.43;;
7179;SDS011;3631;42.152;24.756;2022-12-05T04:37:17;16.67;;;12.37;;
7179;SDS011;3631;42.152;24.756;2022-12-05T04:39:52;17.40;;;11.00;;
7179;SDS011;3631;42.152;24.756;2022-12-05T04:42:25;17.07;;;11.87;;
7179;SDS011;3631;42.152;24.756;2022-12-05T04:44:56;16.20;;;11.63;;
7179;SDS011;3631;42.152;24.756;2022-12-05T04:47:28;16.77;;;12.37;;
7179;SDS011;3631;42.152;24.756;2022-12-05T04:50:02;16.67;;;12.33;;
7179;SDS011;3631;42.152;24.756;2022-12-05T04:52:31;21.13;;;13.87;;
7179;SDS011;3631;42.152;24.756;2022-12-05T04:55:01;19.67;;;14.20;;
7179;SDS011;3631;42.152;24.756;2022-12-05T04:57:34;16.33;;;12.27;;
7179;SDS011;3631;42.152;24.756;2022-12-05T05:00:06;21.53;;;13.20;;
7179;SDS011;3631;42.152;24.756;2022-12-05T05:02:48;18.17;;;13.03;;
7179;SDS011;3631;42.152;24.756;2022-12-05T05:05:21;19.53;;;13.50;;
7179;SDS011;3631;42.152;24.756;2022-12-05T05:07:49;18.90;;;13.17;;
7179;SDS011;3631;42.152;24.756;2022-12-05T05:10:18;20.00;;;13.63;;
7179;SDS011;3631;42.152;24.756;2022-12-05T05:12:52;18.37;;;12.57;;
7179;SDS011;3631;42.152;24.756;2022-12-05T05:15:19;19.47;;;12.40;;
7179;SDS011;3631;42.152;24.756;2022-12-05T05:17:46;17.93;;;12.80;;
7179;SDS011;3631;42.152;24.756;2022-12-05T05:20:13;19.03;;;12.80;;
7179;SDS011;3631;42.152;24.756;2022-12-05T05:22:51;22.13;;;12.63;;
7179;SDS011;3631;42.152;24.756;2022-12-05T05:25:18;20.40;;;12.43;;
7179;SDS011;3631;42.152;24.756;2022-12-05T05:27:47;18.83;;;12.90;;
7179;SDS011;3631;42.152;24.756;2022-12-05T05:30:15;21.30;;;13.43;;
7179;SDS011;3631;42.152;24.756;2022-12-05T05:32:42;26.43;;;13.47;;
7179;SDS011;3631;42.152;24.756;2022-12-05T05:35:09;20.47;;;13.50;;
7179;SDS011;3631;42.152;24.756;2022-12-05T05:37:37;27.63;;;16.53;;
7179;SDS011;3631;42.152;24.756;2022-12-05T05:40:06;27.87;;;18.50;;
7179;SDS011;3631;42.152;24.756;2022-12-05T05:42:35;31.93;;;16.93;;
7179;SDS011;3631;42.152;24.756;2022-12-05T05:45:02;29.20;;;15.97;;
7179;SDS011;3631;42.152;24.756;2022-12-05T05:47:29;22.97;;;14.77;;
7179;SDS011;3631;42.152;24.756;2022-12-05T05:49:56;21.50;;;14.37;;
7179;SDS011;3631;42.152;24.756;2022-12-05T05:52:23;23.33;;;13.90;;
7179;SDS011;3631;42.152;24.756;2022-12-05T05:54:50;25.20;;;13.40;;
7179;SDS011;3631;42.152;24.756;2022-12-05T05:57:18;23.47;;;13.33;;
7179;SDS011;3631;42.152;24.756;2022-12-05T05:59:45;29.17;;;14.73;;
7179;SDS011;3631;42.152;24.756;2022-12-05T06:02:12;23.37;;;14.00;;
7179;SDS011;3631;42.152;24.756;2022-12-05T06:04:39;21.13;;;13.20;;
7179;SDS011;3631;42.152;24.756;2022-12-05T06:07:06;18.73;;;12.90;;
7179;SDS011;3631;42.152;24.756;2022-12-05T06:09:33;25.90;;;15.53;;
7179;SDS011;3631;42.152;24.756;2022-12-05T06:11:59;25.20;;;15.17;;
7179;SDS011;3631;42.152;24.756;2022-12-05T06:14:28;24.63;;;16.17;;
7179;SDS011;3631;42.152;24.756;2022-12-05T06:16:55;24.93;;;15.10;;
7179;SDS011;3631;42.152;24.756;2022-12-05T06:19:22;26.87;;;15.60;;
7179;SDS011;3631;42.152;24.756;2022-12-05T06:21:49;29.53;;;16.83;;
7179;SDS011;3631;42.152;24.756;2022-12-05T06:24:16;21.70;;;13.30;;
7179;SDS011;3631;42.152;24.756;2022-12-05T06:26:43;27.50;;;12.97;;
7179;SDS011;3631;42.152;24.756;2022-12-05T06:29:10;33.23;;;13.67;;
7179;SDS011;3631;42.152;24.756;2022-12-05T06:31:40;23.27;;;12.80;;
7179;SDS011;3631;42.152;24.756;2022-12-05T06:34:07;29.07;;;12.97;;
7179;SDS011;3631;42.152;24.756;2022-12-05T06:36:34;40.80;;;14.20;;
7179;SDS011;3631;42.152;24.756;2022-12-05T06:39:01;39.93;;;14.03;;
7179;SDS011;3631;42.152;24.756;2022-12-05T06:41:29;27.73;;;13.33;;
7179;SDS011;3631;42.152;24.756;2022-12-05T06:43:57;30.80;;;13.13;;
7179;SDS011;3631;42.152;24.756;2022-12-05T06:46:24;33.10;;;15.07;;
7179;SDS011;3631;42.152;24.756;2022-12-05T06:48:53;39.17;;;15.37;;
7179;SDS011;3631;42.152;24.756;2022-12-05T06:51:20;33.60;;;14.83;;
7179;SDS011;3631;42.152;24.756;2022-12-05T06:53:49;41.10;;;15.37;;
7179;SDS011;3631;42.152;24.756;2022-12-05T06:56:17;40.03;;;16.43;;
7179;SDS011;3631;42.152;24.756;2022-12-05T06:58:45;32.33;;;14.47;;
7179;SDS011;3631;42.152;24.756;2022-12-05T07:01:14;32.33;;;15.83;;
7179;SDS011;3631;42.152;24.756;2022-12-05T07:04:00;34.57;;;16.37;;
7179;SDS011;3631;42.152;24.756;2022-12-05T07:06:27;32.93;;;16.03;;
7179;SDS011;3631;42.152;24.756;2022-12-05T07:08:54;40.87;;;16.27;;
7179;SDS011;3631;42.152;24.756;2022-12-05T07:11:21;40.03;;;16.43;;
7179;SDS011;3631;42.152;24.756;2022-12-05T07:13:48;37.23;;;16.70;;
7179;SDS011;3631;42.152;24.756;2022-12-05T07:16:15;35.97;;;17.27;;
7179;SDS011;3631;42.152;24.756;2022-12-05T07:18:42;35.77;;;17.30;;
7179;SDS011;3631;42.152;24.756;2022-12-05T07:21:11;35.80;;;19.70;;
7179;SDS011;3631;42.152;24.756;2022-12-05T07:23:39;35.43;;;18.67;;
7179;SDS011;3631;42.152;24.756;2022-12-05T07:26:08;37.23;;;19.47;;
7179;SDS011;3631;42.152;24.756;2022-12-05T07:28:36;39.23;;;20.17;;
7179;SDS011;3631;42.152;24.756;2022-12-05T07:31:03;34.97;;;20.83;;
7179;SDS011;3631;42.152;24.756;2022-12-05T07:33:32;44.33;;;22.43;;
7179;SDS011;3631;42.152;24.756;2022-12-05T07:36:00;42.67;;;22.73;;
7179;SDS011;3631;42.152;24.756;2022-12-05T07:38:28;42.93;;;23.43;;
7179;SDS011;3631;42.152;24.756;2022-12-05T07:40:55;39.67;;;21.40;;
7179;SDS011;3631;42.152;24.756;2022-12-05T07:43:22;41.83;;;20.80;;
7179;SDS011;3631;42.152;24.756;2022-12-05T07:45:49;48.87;;;21.80;;
7179;SDS011;3631;42.152;24.756;2022-12-05T07:48:16;51.30;;;24.97;;
7179;SDS011;3631;42.152;24.756;2022-12-05T07:50:43;43.13;;;22.57;;
7179;SDS011;3631;42.152;24.756;2022-12-05T07:53:10;47.50;;;21.37;;
7179;SDS011;3631;42.152;24.756;2022-12-05T07:55:38;39.90;;;21.20;;
7179;SDS011;3631;42.152;24.756;2022-12-05T07:58:05;33.27;;;20.50;;
7179;SDS011;3631;42.152;24.756;2022-12-05T08:00:32;37.90;;;20.50;;
7179;SDS011;3631;42.152;24.756;2022-12-05T08:03:00;38.93;;;20.83;;
7179;SDS011;3631;42.152;24.756;2022-12-05T08:05:28;41.70;;;22.53;;
7179;SDS011;3631;42.152;24.756;2022-12-05T08:07:55;45.60;;;22.33;;
7179;SDS011;3631;42.152;24.756;2022-12-05T08:10:22;40.97;;;20.90;;
7179;SDS011;3631;42.152;24.756;2022-12-05T08:12:50;39.73;;;20.07;;
7179;SDS011;3631;42.152;24.756;2022-12-05T08:15:17;38.43;;;21.50;;
7179;SDS011;3631;42.152;24.756;2022-12-05T08:17:44;41.80;;;22.23;;
7179;SDS011;3631;42.152;24.756;2022-12-05T08:20:11;48.13;;;23.50;;
7179;SDS011;3631;42.152;24.756;2022-12-05T08:22:38;52.03;;;29.80;;
7179;SDS011;3631;42.152;24.756;2022-12-05T08:25:06;58.63;;;28.87;;
7179;SDS011;3631;42.152;24.756;2022-12-05T08:27:33;48.80;;;24.80;;
7179;SDS011;3631;42.152;24.756;2022-12-05T08:30:01;43.67;;;24.17;;
7179;SDS011;3631;42.152;24.756;2022-12-05T08:32:29;55.27;;;27.30;;
7179;SDS011;3631;42.152;24.756;2022-12-05T08:34:56;49.57;;;28.50;;
7179;SDS011;3631;42.152;24.756;2022-12-05T08:37:23;52.23;;;26.63;;
7179;SDS011;3631;42.152;24.756;2022-12-05T08:39:49;51.37;;;28.60;;
7179;SDS011;3631;42.152;24.756;2022-12-05T08:42:16;53.83;;;31.53;;
7179;SDS011;3631;42.152;24.756;2022-12-05T08:44:43;52.30;;;29.07;;
7179;SDS011;3631;42.152;24.756;2022-12-05T08:47:12;52.47;;;29.57;;
7179;SDS011;3631;42.152;24.756;2022-12-05T08:49:38;55.17;;;29.67;;
7179;SDS011;3631;42.152;24.756;2022-12-05T08:52:05;57.17;;;29.77;;
7179;SDS011;3631;42.152;24.756;2022-12-05T08:54:32;49.87;;;29.03;;
7179;SDS011;3631;42.152;24.756;2022-12-05T08:56:59;53.53;;;26.53;;
7179;SDS011;3631;42.152;24.756;2022-12-05T08:59:26;49.83;;;28.83;;
7179;SDS011;3631;42.152;24.756;2022-12-05T09:01:53;67.40;;;37.27;;
7179;SDS011;3631;42.152;24.756;2022-12-05T09:04:21;42.27;;;22.70;;
7179;SDS011;3631;42.152;24.756;2022-12-05T09:06:49;47.27;;;24.63;;
7179;SDS011;3631;42.152;24.756;2022-12-05T09:09:16;48.33;;;24.47;;
7179;SDS011;3631;42.152;24.756;2022-12-05T09:11:43;40.97;;;22.97;;
7179;SDS011;3631;42.152;24.756;2022-12-05T09:14:13;39.47;;;24.83;;
7179;SDS011;3631;42.152;24.756;2022-12-05T09:16:42;39.90;;;23.23;;
7179;SDS011;3631;42.152;24.756;2022-12-05T09:19:10;45.77;;;23.30;;
7179;SDS011;3631;42.152;24.756;2022-12-05T09:21:40;49.53;;;29.47;;
7179;SDS011;3631;42.152;24.756;2022-12-05T09:24:08;41.30;;;25.13;;
7179;SDS011;3631;42.152;24.756;2022-12-05T09:26:35;36.90;;;24.23;;
7179;SDS011;3631;42.152;24.756;2022-12-05T09:29:02;47.00;;;26.23;;
7179;SDS011;3631;42.152;24.756;2022-12-05T09:31:29;42.13;;;26.30;;
7179;SDS011;3631;42.152;24.756;2022-12-05T09:33:56;40.10;;;25.70;;
7179;SDS011;3631;42.152;24.756;2022-12-05T09:36:24;54.20;;;29.33;;
7179;SDS011;3631;42.152;24.756;2022-12-05T09:38:53;71.60;;;38.90;;
7179;SDS011;3631;42.152;24.756;2022-12-05T09:41:31;66.70;;;37.10;;
7179;SDS011;3631;42.152;24.756;2022-12-05T09:44:30;65.07;;;38.87;;
7179;SDS011;3631;42.152;24.756;2022-12-05T09:47:09;56.37;;;33.73;;
7179;SDS011;3631;42.152;24.756;2022-12-05T09:49:43;55.73;;;33.23;;
7179;SDS011;3631;42.152;24.756;2022-12-05T09:52:17;57.43;;;32.87;;
7179;SDS011;3631;42.152;24.756;2022-12-05T09:54:52;52.50;;;31.03;;
7179;SDS011;3631;42.152;24.756;2022-12-05T09:57:20;52.73;;;30.47;;
7179;SDS011;3631;42.152;24.756;2022-12-05T09:59:54;48.60;;;30.47;;
7179;SDS011;3631;42.152;24.756;2022-12-05T10:02:22;65.40;;;39.43;;
7179;SDS011;3631;42.152;24.756;2022-12-05T10:05:01;60.20;;;33.67;;
7179;SDS011;3631;42.152;24.756;2022-12-05T10:07:33;52.57;;;30.13;;
7179;SDS011;3631;42.152;24.756;2022-12-05T10:10:17;46.43;;;27.00;;
7179;SDS011;3631;42.152;24.756;2022-12-05T10:12:56;26.63;;;17.33;;
7179;SDS011;3631;42.152;24.756;2022-12-05T10:15:54;39.33;;;24.43;;
7179;SDS011;3631;42.152;24.756;2022-12-05T10:18:27;53.83;;;28.77;;
7179;SDS011;3631;42.152;24.756;2022-12-05T10:21:02;33.10;;;22.63;;
7179;SDS011;3631;42.152;24.756;2022-12-05T10:23:37;35.93;;;23.03;;
7179;SDS011;3631;42.152;24.756;2022-12-05T10:26:10;37.63;;;22.37;;
7179;SDS011;3631;42.152;24.756;2022-12-05T10:28:40;38.80;;;24.83;;
7179;SDS011;3631;42.152;24.756;2022-12-05T10:31:17;36.93;;;23.47;;
7179;SDS011;3631;42.152;24.756;2022-12-05T10:33:50;31.20;;;21.23;;
7179;SDS011;3631;42.152;24.756;2022-12-05T10:36:28;34.77;;;22.20;;
7179;SDS011;3631;42.152;24.756;2022-12-05T10:38:56;37.20;;;21.93;;
7179;SDS011;3631;42.152;24.756;2022-12-05T10:41:26;35.67;;;23.17;;
7179;SDS011;3631;42.152;24.756;2022-12-05T10:43:53;37.93;;;22.43;;
7179;SDS011;3631;42.152;24.756;2022-12-05T10:46:24;38.00;;;22.63;;
7179;SDS011;3631;42.152;24.756;2022-12-05T10:48:52;37.20;;;23.63;;
7179;SDS011;3631;42.152;24.756;2022-12-05T10:51:22;40.43;;;22.50;;
7179;SDS011;3631;42.152;24.756;2022-12-05T10:53:53;34.40;;;21.63;;
7179;SDS011;3631;42.152;24.756;2022-12-05T10:56:42;32.60;;;18.47;;
7179;SDS011;3631;42.152;24.756;2022-12-05T10:59:10;30.73;;;18.43;;
7179;SDS011;3631;42.152;24.756;2022-12-05T11:01:42;29.37;;;19.60;;
7179;SDS011;3631;42.152;24.756;2022-12-05T11:04:22;34.07;;;19.10;;
7179;SDS011;3631;42.152;24.756;2022-12-05T11:06:53;26.80;;;18.23;;
7179;SDS011;3631;42.152;24.756;2022-12-05T11:09:22;27.70;;;17.93;;
7179;SDS011;3631;42.152;24.756;2022-12-05T11:12:02;37.37;;;20.67;;
7179;SDS011;3631;42.152;24.756;2022-12-05T11:14:40;27.20;;;17.50;;
7179;SDS011;3631;42.152;24.756;2022-12-05T11:17:21;30.70;;;18.53;;
7179;SDS011;3631;42.152;24.756;2022-12-05T11:19:50;34.43;;;17.70;;
7179;SDS011;3631;42.152;24.756;2022-12-05T11:22:17;31.87;;;18.23;;
7179;SDS011;3631;42.152;24.756;2022-12-05T11:24:46;39.93;;;25.70;;
7179;SDS011;3631;42.152;24.756;2022-12-05T11:27:23;35.53;;;22.63;;
7179;SDS011;3631;42.152;24.756;2022-12-05T11:29:53;28.07;;;19.00;;
7179;SDS011;3631;42.152;24.756;2022-12-05T11:32:24;24.60;;;18.17;;
7179;SDS011;3631;42.152;24.756;2022-12-05T11:34:52;25.13;;;16.60;;
7179;SDS011;3631;42.152;24.756;2022-12-05T11:37:24;40.50;;;21.60;;
7179;SDS011;3631;42.152;24.756;2022-12-05T11:40:12;52.63;;;27.53;;
7179;SDS011;3631;42.152;24.756;2022-12-05T11:42:45;41.77;;;22.20;;
7179;SDS011;3631;42.152;24.756;2022-12-05T11:45:27;35.87;;;19.53;;
7179;SDS011;3631;42.152;24.756;2022-12-05T11:48:17;31.07;;;19.60;;
7179;SDS011;3631;42.152;24.756;2022-12-05T11:51:02;33.80;;;17.30;;
7179;SDS011;3631;42.152;24.756;2022-12-05T11:53:41;32.10;;;19.20;;
7179;SDS011;3631;42.152;24.756;2022-12-05T11:56:25;30.40;;;19.13;;
7179;SDS011;3631;42.152;24.756;2022-12-05T11:59:07;38.60;;;20.53;;
7179;SDS011;3631;42.152;24.756;2022-12-05T12:01:49;32.90;;;19.20;;
7179;SDS011;3631;42.152;24.756;2022-12-05T12:04:27;27.03;;;18.33;;
7179;SDS011;3631;42.152;24.756;2022-12-05T12:07:34;28.43;;;16.23;;
7179;SDS011;3631;42.152;24.756;2022-12-05T12:10:15;24.07;;;16.83;;
7179;SDS011;3631;42.152;24.756;2022-12-05T12:12:51;19.87;;;14.93;;
7179;SDS011;3631;42.152;24.756;2022-12-05T12:15:32;22.03;;;15.47;;
7179;SDS011;3631;42.152;24.756;2022-12-05T12:18:13;28.33;;;19.27;;
7179;SDS011;3631;42.152;24.756;2022-12-05T12:20:57;29.63;;;19.13;;
7179;SDS011;3631;42.152;24.756;2022-12-05T12:23:39;23.57;;;16.03;;
7179;SDS011;3631;42.152;24.756;2022-12-05T12:26:15;22.63;;;15.13;;
7179;SDS011;3631;42.152;24.756;2022-12-05T12:28:51;23.20;;;14.63;;
7179;SDS011;3631;42.152;24.756;2022-12-05T12:31:33;25.40;;;16.23;;
7179;SDS011;3631;42.152;24.756;2022-12-05T12:34:15;29.03;;;19.70;;
7179;SDS011;3631;42.152;24.756;2022-12-05T12:36:55;34.40;;;24.43;;
7179;SDS011;3631;42.152;24.756;2022-12-05T12:39:31;36.13;;;22.67;;
7179;SDS011;3631;42.152;24.756;2022-12-05T12:42:14;27.10;;;17.60;;
7179;SDS011;3631;42.152;24.756;2022-12-05T12:44:58;23.73;;;17.33;;
7179;SDS011;3631;42.152;24.756;2022-12-05T12:47:46;20.43;;;14.93;;
7179;SDS011;3631;42.152;24.756;2022-12-05T12:50:23;21.40;;;15.70;;
7179;SDS011;3631;42.152;24.756;2022-12-05T12:53:05;20.93;;;15.30;;
7179;SDS011;3631;42.152;24.756;2022-12-05T12:55:49;23.43;;;17.10;;
7179;SDS011;3631;42.152;24.756;2022-12-05T12:58:27;26.73;;;17.10;;
7179;SDS011;3631;42.152;24.756;2022-12-05T13:01:07;23.20;;;16.60;;
7179;SDS011;3631;42.152;24.756;2022-12-05T13:03:43;22.30;;;15.17;;
7179;SDS011;3631;42.152;24.756;2022-12-05T13:06:17;23.27;;;16.00;;
7179;SDS011;3631;42.152;24.756;2022-12-05T13:08:49;25.17;;;16.40;;
7179;SDS011;3631;42.152;24.756;2022-12-05T13:11:21;26.30;;;18.10;;
7179;SDS011;3631;42.152;24.756;2022-12-05T13:13:49;21.70;;;14.83;;
7179;SDS011;3631;42.152;24.756;2022-12-05T13:16:21;30.57;;;16.20;;
7179;SDS011;3631;42.152;24.756;2022-12-05T13:18:52;25.50;;;15.53;;
7179;SDS011;3631;42.152;24.756;2022-12-05T13:21:20;30.93;;;15.93;;
7179;SDS011;3631;42.152;24.756;2022-12-05T13:23:48;27.27;;;16.33;;
7179;SDS011;3631;42.152;24.756;2022-12-05T13:26:17;23.10;;;15.37;;
7179;SDS011;3631;42.152;24.756;2022-12-05T13:28:47;22.20;;;15.57;;
7179;SDS011;3631;42.152;24.756;2022-12-05T13:31:15;22.03;;;16.07;;
7179;SDS011;3631;42.152;24.756;2022-12-05T13:33:43;26.63;;;19.97;;
7179;SDS011;3631;42.152;24.756;2022-12-05T13:36:14;21.73;;;16.03;;
7179;SDS011;3631;42.152;24.756;2022-12-05T13:39:02;26.00;;;18.10;;
7179;SDS011;3631;42.152;24.756;2022-12-05T13:41:49;26.33;;;18.50;;
7179;SDS011;3631;42.152;24.756;2022-12-05T13:44:37;26.47;;;18.03;;
7179;SDS011;3631;42.152;24.756;2022-12-05T13:47:16;27.00;;;17.90;;
7179;SDS011;3631;42.152;24.756;2022-12-05T13:49:50;29.83;;;16.73;;
7179;SDS011;3631;42.152;24.756;2022-12-05T13:52:22;22.37;;;16.13;;
7179;SDS011;3631;42.152;24.756;2022-12-05T13:54:55;24.63;;;16.33;;
7179;SDS011;3631;42.152;24.756;2022-12-05T14:00:26;23.30;;;15.37;;
7179;SDS011;3631;42.152;24.756;2022-12-05T14:02:58;25.93;;;16.87;;
7179;SDS011;3631;42.152;24.756;2022-12-05T14:11:29;40.93;;;21.30;;
7179;SDS011;3631;42.152;24.756;2022-12-05T14:13:56;34.57;;;21.30;;
7179;SDS011;3631;42.152;24.756;2022-12-05T14:19:14;35.03;;;21.73;;
7179;SDS011;3631;42.152;24.756;2022-12-05T14:21:55;30.23;;;19.33;;
7179;SDS011;3631;42.152;24.756;2022-12-05T14:24:31;29.73;;;20.83;;
7179;SDS011;3631;42.152;24.756;2022-12-05T14:27:06;31.03;;;20.77;;
7179;SDS011;3631;42.152;24.756;2022-12-05T14:29:46;37.23;;;22.47;;
7179;SDS011;3631;42.152;24.756;2022-12-05T14:32:27;34.83;;;23.60;;
7179;SDS011;3631;42.152;24.756;2022-12-05T14:34:57;33.07;;;23.00;;
7179;SDS011;3631;42.152;24.756;2022-12-05T14:37:30;36.27;;;21.90;;
7179;SDS011;3631;42.152;24.756;2022-12-05T14:39:59;58.03;;;31.97;;
7179;SDS011;3631;42.152;24.756;2022-12-05T14:42:32;36.63;;;22.53;;
7179;SDS011;3631;42.152;24.756;2022-12-05T14:45:16;38.50;;;20.60;;
7179;SDS011;3631;42.152;24.756;2022-12-05T14:47:50;34.37;;;20.87;;
7179;SDS011;3631;42.152;24.756;2022-12-05T14:53:22;41.17;;;23.13;;
7179;SDS011;3631;42.152;24.756;2022-12-05T14:56:12;37.83;;;22.40;;
7179;SDS011;3631;42.152;24.756;2022-12-05T14:58:51;31.83;;;20.43;;
7179;SDS011;3631;42.152;24.756;2022-12-05T15:01:22;27.97;;;18.27;;
7179;SDS011;3631;42.152;24.756;2022-12-05T15:04:01;27.27;;;17.23;;
7179;SDS011;3631;42.152;24.756;2022-12-05T15:06:32;30.07;;;17.20;;
7179;SDS011;3631;42.152;24.756;2022-12-05T15:09:03;25.57;;;17.17;;
7179;SDS011;3631;42.152;24.756;2022-12-05T15:11:34;24.57;;;16.97;;
7179;SDS011;3631;42.152;24.756;2022-12-05T15:14:08;29.70;;;17.30;;
7179;SDS011;3631;42.152;24.756;2022-12-05T15:16:42;29.03;;;17.90;;
7179;SDS011;3631;42.152;24.756;2022-12-05T15:19:16;33.33;;;17.33;;
7179;SDS011;3631;42.152;24.756;2022-12-05T15:21:46;26.13;;;17.07;;